Terminal Aerodrome Forecast
Issued by NWS Cheyenne, WY

Home | Current Version | Previous Version | Text Only | Print | Product List | Glossary On
Versions: 1 2 3 4 5 6 7 8 9 10 11 12 13 14 15 16
000
FTUS45 KCYS 302134 AAB
TAFCYS
TAF AMD
KCYS 302134Z 3022/3118 34010KT P6SM VCTS BKN100CB
      TEMPO 3022/3023 VRB25G35KT 5SM -TSRAGR BKN080CB
     FM310000 32009KT P6SM SCT100
     FM310200 35011KT P6SM BKN200
     FM311200 34009KT P6SM BKN035
     FM311700 07007KT P6SM BKN040=

USA.gov is the U.S. government's official web portal to all federal, state and local government web resources and services.